createdAt,value
2024-01-05T00:00:04.450Z,4.10
2024-01-05T00:02:35.477Z,4.70
2024-01-05T00:05:03.265Z,4.73
2024-01-05T00:07:31.943Z,4.30
2024-01-05T00:10:00.578Z,4.00
2024-01-05T00:12:28.513Z,4.13
2024-01-05T00:14:58.394Z,4.30
2024-01-05T00:17:26.484Z,4.33
2024-01-05T00:19:54.299Z,4.40
2024-01-05T00:22:22.532Z,4.30
2024-01-05T00:24:50.413Z,3.87
2024-01-05T00:27:18.923Z,4.43
2024-01-05T00:29:47.282Z,4.60
2024-01-05T00:32:18.825Z,4.20
2024-01-05T00:34:47.646Z,3.90
2024-01-05T00:37:15.644Z,3.90
2024-01-05T00:39:46.024Z,3.90
2024-01-05T00:42:13.859Z,3.80
2024-01-05T00:44:41.650Z,4.10
2024-01-05T00:47:09.891Z,3.10
2024-01-05T00:49:39.494Z,3.53
2024-01-05T00:52:07.844Z,3.60
2024-01-05T00:54:35.871Z,4.40
2024-01-05T00:57:03.938Z,4.50
2024-01-05T00:59:31.639Z,3.83
2024-01-05T01:01:59.930Z,4.03
2024-01-05T01:04:28.359Z,4.60
2024-01-05T01:06:57.989Z,4.50
2024-01-05T01:09:26.186Z,4.53
2024-01-05T01:11:54.054Z,4.63
2024-01-05T01:14:22.179Z,3.90
2024-01-05T01:16:51.737Z,4.40
2024-01-05T01:19:19.701Z,3.80
2024-01-05T01:21:47.576Z,3.93
2024-01-05T01:24:17.548Z,4.07
2024-01-05T01:26:45.895Z,3.90
2024-01-05T01:29:13.733Z,3.70
2024-01-05T01:31:41.634Z,3.60
2024-01-05T01:34:09.484Z,3.57
2024-01-05T01:36:37.575Z,4.10
2024-01-05T01:39:06.082Z,4.30
2024-01-05T01:41:35.648Z,4.23
2024-01-05T01:44:04.047Z,3.77
2024-01-05T01:46:32.977Z,4.93
2024-01-05T01:49:00.806Z,5.30
2024-01-05T01:51:29.956Z,5.57
2024-01-05T01:53:58.710Z,5.17
2024-01-05T01:56:26.537Z,4.30
2024-01-05T01:58:55.571Z,4.50
2024-01-05T02:01:24.068Z,4.20
2024-01-05T02:03:52.577Z,4.73
2024-01-05T02:06:21.361Z,4.33
2024-01-05T02:08:49.481Z,3.90
2024-01-05T02:11:17.398Z,3.87
2024-01-05T02:13:45.205Z,3.97
2024-01-05T02:16:14.824Z,4.13
2024-01-05T02:19:02.931Z,3.53
2024-01-05T02:21:31.994Z,3.60
2024-01-05T02:24:01.328Z,3.83
2024-01-05T02:26:29.645Z,3.37
2024-01-05T02:28:57.501Z,3.03
2024-01-05T02:31:25.304Z,3.23
2024-01-05T02:33:53.354Z,3.30
2024-01-05T02:36:21.557Z,4.20
2024-01-05T02:38:50.109Z,4.20
2024-01-05T02:41:19.317Z,4.70
2024-01-05T02:43:47.344Z,4.83
2024-01-05T02:46:15.507Z,4.60
2024-01-05T02:48:43.322Z,4.07
2024-01-05T02:51:14.138Z,3.77
2024-01-05T02:53:43.838Z,3.47
2024-01-05T02:56:21.964Z,3.20
2024-01-05T02:58:49.692Z,3.87
2024-01-05T03:01:17.487Z,3.20
2024-01-05T03:03:49.541Z,3.37
2024-01-05T03:06:19.097Z,3.50
2024-01-05T03:08:47.215Z,3.00
2024-01-05T03:11:15.404Z,3.23
2024-01-05T03:13:44.434Z,3.23
2024-01-05T03:16:12.741Z,3.00
2024-01-05T03:18:40.529Z,3.50
2024-01-05T03:21:08.988Z,3.30
2024-01-05T03:23:36.959Z,3.50
2024-01-05T03:26:05.051Z,3.33
2024-01-05T03:28:32.939Z,3.10
2024-01-05T03:31:02.627Z,3.77
2024-01-05T03:33:30.617Z,3.60
2024-01-05T03:35:59.763Z,3.60
2024-01-05T03:38:27.447Z,3.43
2024-01-05T03:40:57.016Z,3.73
2024-01-05T03:43:25.735Z,4.00
2024-01-05T03:45:53.807Z,3.80
2024-01-05T03:48:23.703Z,4.10
2024-01-05T03:50:52.700Z,4.20
2024-01-05T03:53:20.889Z,4.37
2024-01-05T03:55:48.733Z,4.20
2024-01-05T03:58:17.011Z,4.10
2024-01-05T04:00:45.483Z,3.70
2024-01-05T04:03:13.750Z,4.40
2024-01-05T04:05:43.018Z,4.30
2024-01-05T04:08:11.121Z,4.70
2024-01-05T04:10:39.726Z,3.70
2024-01-05T04:13:07.985Z,4.70
2024-01-05T04:15:37.090Z,4.30
2024-01-05T04:18:05.456Z,4.00
2024-01-05T04:20:33.258Z,5.10
2024-01-05T04:23:02.887Z,5.23
2024-01-05T04:25:31.257Z,4.77
2024-01-05T04:27:59.832Z,5.50
2024-01-05T04:30:28.485Z,5.00
2024-01-05T04:32:56.473Z,5.10
2024-01-05T04:35:24.459Z,5.20
2024-01-05T04:37:52.831Z,5.53
2024-01-05T04:40:22.667Z,5.00
2024-01-05T04:42:50.796Z,5.60
2024-01-05T04:45:18.738Z,6.20
2024-01-05T04:47:48.163Z,5.70
2024-01-05T04:50:16.250Z,6.10
2024-01-05T04:52:44.705Z,6.10
2024-01-05T04:55:16.007Z,6.33
2024-01-05T04:57:46.531Z,5.90
2024-01-05T05:00:15.362Z,6.03
2024-01-05T05:02:43.054Z,5.83
2024-01-05T05:05:11.629Z,5.83
2024-01-05T05:07:39.712Z,6.37
2024-01-05T05:10:08.768Z,6.00
2024-01-05T05:12:36.774Z,5.83
2024-01-05T05:15:06.571Z,5.80
2024-01-05T05:17:34.986Z,5.60
2024-01-05T05:20:02.813Z,5.13
2024-01-05T05:22:30.868Z,5.53
2024-01-05T05:24:58.692Z,5.10
2024-01-05T05:27:27.792Z,5.27
2024-01-05T05:29:55.593Z,4.83
2024-01-05T05:32:24.929Z,4.97
2024-01-05T05:34:53.778Z,5.20
2024-01-05T05:37:21.531Z,5.17
2024-01-05T05:39:49.811Z,4.60
2024-01-05T05:42:17.762Z,5.40
2024-01-05T05:44:45.696Z,4.90
2024-01-05T05:47:13.400Z,4.80
2024-01-05T05:49:43.143Z,4.83
2024-01-05T05:52:10.871Z,5.30
2024-01-05T05:54:38.569Z,4.87
2024-01-05T05:57:10.497Z,5.30
2024-01-05T05:59:38.314Z,4.97
2024-01-05T06:02:06.361Z,5.07
2024-01-05T06:04:34.304Z,4.90
2024-01-05T06:07:03.459Z,4.80
2024-01-05T06:09:31.574Z,4.93
2024-01-05T06:11:59.393Z,4.60
2024-01-05T06:14:27.404Z,4.73
2024-01-05T06:16:55.109Z,3.93
2024-01-05T06:19:22.922Z,4.20
2024-01-05T06:21:50.680Z,4.63
2024-01-05T06:24:20.036Z,4.20
2024-01-05T06:26:48.225Z,4.60
2024-01-05T06:29:16.050Z,4.80
2024-01-05T06:31:44.345Z,4.70
2024-01-05T06:34:12.394Z,5.37
2024-01-05T06:36:40.230Z,5.63
2024-01-05T06:39:08.237Z,5.37
2024-01-05T06:41:38.120Z,4.90
2024-01-05T06:44:06.710Z,5.03
2024-01-05T06:46:34.573Z,5.10
2024-01-05T06:49:02.988Z,5.27
2024-01-05T06:51:31.787Z,5.97
2024-01-05T06:54:00.324Z,5.43
2024-01-05T06:56:33.106Z,5.97
2024-01-05T06:59:02.660Z,6.00
2024-01-05T07:01:30.759Z,6.40
2024-01-05T07:03:59.054Z,5.60
2024-01-05T07:06:27.252Z,6.70
2024-01-05T07:08:55.718Z,6.10
2024-01-05T07:11:23.788Z,6.90
2024-01-05T07:13:51.672Z,5.93
2024-01-05T07:16:21.071Z,6.60
2024-01-05T07:18:49.593Z,7.53
2024-01-05T07:21:17.822Z,7.60
2024-01-05T07:23:46.095Z,9.10
2024-01-05T07:26:15.464Z,9.00
2024-01-05T07:28:43.342Z,11.20
2024-01-05T07:31:11.539Z,9.83
2024-01-05T07:33:49.269Z,10.20
2024-01-05T07:36:17.143Z,9.60
2024-01-05T07:38:45.017Z,9.17
2024-01-05T07:41:16.904Z,9.87
2024-01-05T07:43:44.721Z,10.63
2024-01-05T07:46:13.567Z,11.37
2024-01-05T07:48:42.767Z,11.27
2024-01-05T07:51:12.219Z,11.33
2024-01-05T07:53:40.912Z,12.40
2024-01-05T07:56:09.536Z,12.30
2024-01-05T07:58:37.381Z,15.53
2024-01-05T08:01:05.491Z,13.83
2024-01-05T08:03:34.287Z,13.57
2024-01-05T08:06:02.384Z,9.90
2024-01-05T08:08:30.906Z,12.63
2024-01-05T08:10:59.056Z,12.50
2024-01-05T08:13:27.590Z,11.70
2024-01-05T08:15:55.452Z,13.47
2024-01-05T08:18:25.189Z,14.43
2024-01-05T08:20:52.940Z,13.90
2024-01-05T08:23:21.619Z,14.00
2024-01-05T08:25:50.764Z,13.77
2024-01-05T08:28:18.570Z,12.17
2024-01-05T08:30:47.949Z,12.90
2024-01-05T08:33:16.238Z,10.27
2024-01-05T08:35:44.287Z,12.40
2024-01-05T08:38:12.101Z,11.80
2024-01-05T08:40:39.893Z,10.80
2024-01-05T08:43:11.241Z,11.70
2024-01-05T08:45:40.976Z,11.40
2024-01-05T08:48:17.193Z,11.03
2024-01-05T08:50:45.450Z,11.77
2024-01-05T08:53:13.204Z,11.87
2024-01-05T08:55:40.948Z,12.27
2024-01-05T08:58:11.490Z,12.43
2024-01-05T09:00:39.300Z,12.63
2024-01-05T09:03:10.831Z,11.60
2024-01-05T09:05:40.658Z,15.10
2024-01-05T09:08:08.384Z,12.57
2024-01-05T09:10:36.058Z,12.07
2024-01-05T09:13:04.873Z,11.70
2024-01-05T09:15:35.432Z,11.63
2024-01-05T09:18:04.413Z,11.20
2024-01-05T09:20:32.462Z,10.53
2024-01-05T09:23:01.118Z,10.20
2024-01-05T09:25:29.315Z,10.00
2024-01-05T09:28:01.801Z,10.87
2024-01-05T09:30:30.739Z,9.83
2024-01-05T09:33:00.424Z,9.20
2024-01-05T09:35:28.488Z,9.60
2024-01-05T09:38:16.490Z,10.87
2024-01-05T09:41:04.560Z,10.50
2024-01-05T09:43:54.178Z,11.20
2024-01-05T09:46:42.496Z,12.10
2024-01-05T09:49:35.930Z,12.70
2024-01-05T09:52:23.705Z,11.90
2024-01-05T09:55:12.685Z,11.80
2024-01-05T09:58:00.497Z,11.87
2024-01-05T10:00:51.025Z,13.43
2024-01-05T10:03:38.994Z,12.13
2024-01-05T10:06:28.857Z,12.50
2024-01-05T10:09:16.957Z,12.40
2024-01-05T10:12:13.160Z,12.00
2024-01-05T10:15:04.041Z,12.40
2024-01-05T10:17:52.070Z,10.27
2024-01-05T10:20:42.422Z,10.70
2024-01-05T10:23:31.877Z,9.83
2024-01-05T10:26:21.160Z,11.27
2024-01-05T10:29:15.813Z,10.50
2024-01-05T10:32:14.384Z,9.17
2024-01-05T10:35:04.631Z,10.37
2024-01-05T10:38:04.264Z,9.13
2024-01-05T10:40:54.413Z,10.00
2024-01-05T10:43:43.522Z,12.00
2024-01-05T10:46:32.860Z,11.30
2024-01-05T10:49:20.966Z,10.20
2024-01-05T10:52:09.889Z,10.23
2024-01-05T10:54:58.441Z,10.40
2024-01-05T10:57:48.008Z,10.20
2024-01-05T11:00:35.972Z,9.80
2024-01-05T11:03:26.041Z,10.57
2024-01-05T11:06:14.910Z,10.40
2024-01-05T11:09:07.630Z,11.20
2024-01-05T11:12:03.673Z,10.87
2024-01-05T11:15:04.055Z,11.40
2024-01-05T11:18:16.664Z,11.30
2024-01-05T11:21:10.804Z,11.33
2024-01-05T11:23:58.789Z,11.10
2024-01-05T11:26:47.071Z,11.10
2024-01-05T11:29:51.393Z,9.70
2024-01-05T11:32:44.031Z,11.90
2024-01-05T11:35:43.442Z,12.67
2024-01-05T11:38:32.694Z,12.00
2024-01-05T11:41:20.986Z,13.40
2024-01-05T11:44:26.710Z,12.80
2024-01-05T11:47:36.220Z,13.47
2024-01-05T11:50:27.356Z,13.90
2024-01-05T11:53:16.079Z,13.90
2024-01-05T11:56:04.856Z,12.30
2024-01-05T11:58:52.570Z,12.77
2024-01-05T12:01:40.651Z,13.57
2024-01-05T12:04:29.026Z,13.43
2024-01-05T12:07:41.226Z,13.37
2024-01-05T12:10:29.804Z,13.77
2024-01-05T12:13:23.598Z,13.00
2024-01-05T12:16:11.899Z,13.00
2024-01-05T12:19:00.106Z,13.90
2024-01-05T12:21:51.913Z,12.77
2024-01-05T12:24:41.422Z,12.53
2024-01-05T12:27:36.823Z,12.50
2024-01-05T12:30:26.347Z,11.00
2024-01-05T12:33:14.768Z,13.77
2024-01-05T12:36:03.318Z,12.93
2024-01-05T12:38:51.811Z,12.03
2024-01-05T12:41:47.697Z,10.73
2024-01-05T12:44:36.385Z,12.00
2024-01-05T12:47:30.608Z,12.03
2024-01-05T12:50:24.815Z,11.90
2024-01-05T12:53:19.875Z,12.03
2024-01-05T12:56:09.216Z,12.20
2024-01-05T12:58:58.665Z,12.80
2024-01-05T13:01:46.400Z,12.40
2024-01-05T13:04:40.007Z,12.13
2024-01-05T13:07:29.572Z,13.73
2024-01-05T13:10:17.440Z,12.50
2024-01-05T13:13:07.199Z,13.23
2024-01-05T13:15:56.662Z,11.97
2024-01-05T13:18:44.764Z,13.90
2024-01-05T13:21:33.049Z,14.27
2024-01-05T13:24:20.959Z,16.50
2024-01-05T13:27:10.526Z,15.33
2024-01-05T13:29:58.503Z,14.13
2024-01-05T13:32:49.062Z,15.57
2024-01-05T13:35:37.678Z,15.67
2024-01-05T13:38:25.805Z,14.57
2024-01-05T13:41:13.518Z,16.30
2024-01-05T13:44:01.767Z,16.00
2024-01-05T13:46:49.734Z,15.90
2024-01-05T13:49:39.274Z,15.20
2024-01-05T13:52:27.185Z,13.43
2024-01-05T13:55:15.974Z,15.73
2024-01-05T13:58:04.264Z,15.90
2024-01-05T14:00:53.208Z,15.70
2024-01-05T14:03:41.175Z,15.10
2024-01-05T14:06:30.855Z,13.90
2024-01-05T14:09:18.795Z,16.60
2024-01-05T14:12:07.317Z,15.43
2024-01-05T14:14:55.050Z,15.80
2024-01-05T14:17:43.916Z,16.20
2024-01-05T14:20:31.884Z,16.50
2024-01-05T14:23:21.694Z,15.93
2024-01-05T14:26:12.520Z,16.40
2024-01-05T14:29:00.662Z,15.47
2024-01-05T14:31:49.157Z,15.37
2024-01-05T14:34:40.240Z,16.50
2024-01-05T14:37:30.181Z,15.07
2024-01-05T14:40:20.020Z,14.77
2024-01-05T14:43:07.770Z,16.33
2024-01-05T14:45:56.200Z,16.37
2024-01-05T14:48:44.426Z,15.70
2024-01-05T14:51:32.668Z,15.70
2024-01-05T14:54:20.487Z,15.30
2024-01-05T14:57:10.225Z,15.20
2024-01-05T14:59:57.938Z,16.70
2024-01-05T15:02:45.976Z,16.97
2024-01-05T15:05:33.805Z,16.87
2024-01-05T15:08:23.653Z,18.40
2024-01-05T15:11:18.003Z,18.50
2024-01-05T15:14:08.748Z,18.23
2024-01-05T15:16:56.461Z,16.90
2024-01-05T15:19:44.901Z,17.97
2024-01-05T15:22:32.813Z,18.50
2024-01-05T15:25:20.935Z,17.60
2024-01-05T15:28:08.909Z,19.00
2024-01-05T15:30:59.200Z,19.50
2024-01-05T15:33:47.333Z,18.03
2024-01-05T15:36:35.767Z,18.97
2024-01-05T15:39:23.681Z,19.23
2024-01-05T15:42:11.842Z,19.40
2024-01-05T15:44:59.700Z,20.07
2024-01-05T15:47:50.355Z,20.30
2024-01-05T15:50:38.354Z,21.63
2024-01-05T15:53:26.997Z,22.53
2024-01-05T15:56:17.244Z,21.40
2024-01-05T15:59:05.627Z,20.87
2024-01-05T16:01:53.703Z,21.57
2024-01-05T16:04:43.550Z,22.77
2024-01-05T16:07:32.320Z,19.43
2024-01-05T16:10:20.180Z,19.60
2024-01-05T16:13:08.022Z,17.83
2024-01-05T16:16:11.520Z,21.30
2024-01-05T16:19:01.644Z,22.17
2024-01-05T16:21:51.220Z,23.50
2024-01-05T16:24:38.967Z,21.60
2024-01-05T16:27:27.348Z,22.00
2024-01-05T16:30:15.945Z,24.63
2024-01-05T16:33:04.235Z,22.33
2024-01-05T16:35:52.198Z,25.00
2024-01-05T16:38:41.776Z,24.93
2024-01-05T16:41:29.717Z,24.23
2024-01-05T16:44:17.795Z,23.60
2024-01-05T16:47:05.624Z,24.60
2024-01-05T16:49:53.871Z,25.10
2024-01-05T16:52:43.170Z,26.20
2024-01-05T16:55:35.990Z,25.00
2024-01-05T16:58:23.760Z,25.93
2024-01-05T17:01:12.610Z,26.97
2024-01-05T17:04:00.462Z,28.40
2024-01-05T17:06:53.736Z,27.70
2024-01-05T17:09:42.437Z,27.70
2024-01-05T17:12:33.060Z,28.73
2024-01-05T17:15:20.895Z,28.33
2024-01-05T17:18:08.892Z,28.00
2024-01-05T17:20:56.913Z,28.30
2024-01-05T17:23:44.936Z,29.00
2024-01-05T17:26:39.025Z,29.63
2024-01-05T17:29:28.174Z,30.00
2024-01-05T17:32:16.580Z,31.07
2024-01-05T17:35:04.768Z,30.20
2024-01-05T17:37:53.624Z,29.60
2024-01-05T17:40:41.657Z,30.53
2024-01-05T17:43:29.349Z,28.57
2024-01-05T17:46:19.040Z,31.60
2024-01-05T17:49:07.085Z,30.53
2024-01-05T17:51:56.469Z,30.17
2024-01-05T17:54:44.769Z,30.70
2024-01-05T17:57:33.185Z,32.80
2024-01-05T18:00:03.098Z,30.70
2024-01-05T18:02:41.318Z,31.67
2024-01-05T18:05:10.441Z,27.77
2024-01-05T18:07:38.339Z,31.53
2024-01-05T18:10:07.128Z,31.50
2024-01-05T18:12:35.111Z,31.00
2024-01-05T18:15:05.286Z,31.47
2024-01-05T18:17:33.868Z,31.70
2024-01-05T18:20:03.105Z,30.50
2024-01-05T18:22:30.908Z,32.43
2024-01-05T18:24:58.885Z,32.90
2024-01-05T18:27:26.802Z,33.87
2024-01-05T18:29:54.553Z,31.10
2024-01-05T18:32:23.219Z,31.50
2024-01-05T18:34:50.061Z,33.27
2024-01-05T18:37:20.808Z,32.53
2024-01-05T18:39:49.944Z,34.57
2024-01-05T18:42:17.792Z,33.70
2024-01-05T18:44:45.911Z,33.60
2024-01-05T18:47:14.242Z,35.00
2024-01-05T18:49:42.207Z,32.73
2024-01-05T18:52:10.000Z,31.57
2024-01-05T18:54:40.135Z,35.67
2024-01-05T18:57:08.354Z,35.67
2024-01-05T18:59:36.289Z,34.40
2024-01-05T19:02:06.312Z,33.60
2024-01-05T19:04:36.474Z,35.10
2024-01-05T19:07:06.602Z,36.90
2024-01-05T19:09:34.857Z,38.17
2024-01-05T19:12:04.881Z,35.80
2024-01-05T19:14:33.503Z,37.13
2024-01-05T19:17:01.233Z,36.53
2024-01-05T19:19:29.373Z,36.13
2024-01-05T19:21:58.118Z,39.00
2024-01-05T19:24:29.609Z,37.70
2024-01-05T19:26:58.053Z,37.00
2024-01-05T19:29:27.217Z,37.63
2024-01-05T19:31:55.219Z,37.00
2024-01-05T19:34:23.067Z,38.07
2024-01-05T19:36:52.410Z,38.13
2024-01-05T19:39:20.535Z,38.37
2024-01-05T19:41:49.214Z,36.30
2024-01-05T19:44:18.732Z,36.87
2024-01-05T19:46:48.134Z,37.70
2024-01-05T19:49:17.433Z,41.27
2024-01-05T19:51:46.719Z,39.90
2024-01-05T19:54:19.498Z,37.43
2024-01-05T19:56:48.881Z,36.93
2024-01-05T19:59:17.969Z,39.47
2024-01-05T20:01:47.517Z,40.03
2024-01-05T20:04:18.041Z,40.17
2024-01-05T20:06:48.392Z,39.97
2024-01-05T20:09:17.614Z,39.97
2024-01-05T20:11:46.473Z,38.43
2024-01-05T20:14:15.023Z,40.00
2024-01-05T20:16:43.257Z,41.60
2024-01-05T20:19:32.748Z,41.80
2024-01-05T20:22:02.970Z,42.70
2024-01-05T20:24:31.037Z,41.60
2024-01-05T20:26:59.217Z,40.93
2024-01-05T20:29:27.369Z,40.33
2024-01-05T20:31:55.803Z,41.37
2024-01-05T20:34:24.632Z,41.10
2024-01-05T20:36:55.403Z,43.23
2024-01-05T20:39:25.217Z,41.50
2024-01-05T20:41:53.200Z,44.00
2024-01-05T20:44:23.207Z,42.63
2024-01-05T20:46:51.565Z,43.90
2024-01-05T20:49:19.882Z,40.90
2024-01-05T20:51:48.184Z,43.13
2024-01-05T20:54:18.239Z,44.07
2024-01-05T20:56:46.311Z,43.00
2024-01-05T20:59:14.389Z,42.50
2024-01-05T21:01:43.868Z,45.93
2024-01-05T21:04:15.652Z,45.40
2024-01-05T21:06:45.395Z,45.23
2024-01-05T21:09:14.190Z,46.17
2024-01-05T21:11:43.637Z,44.80
2024-01-05T21:14:14.152Z,44.43
2024-01-05T21:16:43.099Z,44.57
2024-01-05T21:19:11.437Z,45.87
2024-01-05T21:21:44.013Z,46.47
2024-01-05T21:24:12.236Z,46.73
2024-01-05T21:26:46.117Z,43.83
2024-01-05T21:29:15.703Z,46.20
2024-01-05T21:31:48.631Z,47.17
2024-01-05T21:34:17.176Z,46.10
2024-01-05T21:36:46.583Z,48.50
2024-01-05T21:39:18.461Z,48.17
2024-01-05T21:41:49.368Z,46.00
2024-01-05T21:44:17.735Z,48.10
2024-01-05T21:46:45.654Z,46.73
2024-01-05T21:49:13.933Z,48.93
2024-01-05T21:51:41.955Z,57.50
2024-01-05T21:54:10.859Z,49.53
2024-01-05T21:56:39.716Z,52.90
2024-01-05T21:59:09.520Z,48.40
2024-01-05T22:01:37.914Z,49.97
2024-01-05T22:04:06.414Z,48.87
2024-01-05T22:06:34.684Z,46.30
2024-01-05T22:09:02.658Z,49.47
2024-01-05T22:11:30.986Z,49.50
2024-01-05T22:13:59.210Z,50.43
2024-01-05T22:16:28.847Z,51.67
2024-01-05T22:18:57.256Z,51.93
2024-01-05T22:21:25.262Z,49.30
2024-01-05T22:23:53.912Z,49.63
2024-01-05T22:26:22.267Z,51.30
2024-01-05T22:28:51.778Z,52.00
2024-01-05T22:31:19.999Z,52.77
2024-01-05T22:33:49.762Z,51.87
2024-01-05T22:36:18.202Z,50.87
2024-01-05T22:38:46.202Z,50.13
2024-01-05T22:41:15.401Z,54.97
2024-01-05T22:43:43.510Z,50.87
2024-01-05T22:46:14.703Z,55.63
2024-01-05T22:48:46.447Z,53.77
2024-01-05T22:51:23.748Z,52.47
2024-01-05T22:53:52.066Z,54.43
2024-01-05T22:56:20.027Z,54.07
2024-01-05T22:58:48.491Z,53.90
2024-01-05T23:01:20.735Z,53.40
2024-01-05T23:03:49.240Z,54.60
2024-01-05T23:06:17.692Z,54.67
2024-01-05T23:08:47.643Z,53.87
2024-01-05T23:11:16.027Z,54.67
2024-01-05T23:13:44.907Z,57.07
2024-01-05T23:16:14.277Z,54.43
2024-01-05T23:18:42.712Z,55.17
2024-01-05T23:21:10.739Z,59.70
2024-01-05T23:23:40.221Z,57.20
2024-01-05T23:26:16.017Z,54.47
2024-01-05T23:28:44.316Z,54.63
2024-01-05T23:31:13.288Z,58.77
2024-01-05T23:33:41.692Z,55.30
2024-01-05T23:36:09.956Z,59.10
2024-01-05T23:38:37.999Z,58.03
2024-01-05T23:41:06.070Z,54.13
2024-01-05T23:43:36.326Z,57.23
2024-01-05T23:46:04.389Z,58.67
2024-01-05T23:48:32.785Z,59.30
2024-01-05T23:51:01.225Z,59.03
2024-01-05T23:53:29.221Z,59.23
2024-01-05T23:55:57.529Z,56.80
2024-01-05T23:58:25.591Z,56.00
